sensor_id;sensor_type;location;lat;lon;timestamp;temperature;humidity
11087;DHT22;5597;47.588;9.642;2022-09-16T00:00:22;14.90;99.90
11087;DHT22;5597;47.588;9.642;2022-09-16T00:02:51;14.90;99.90
11087;DHT22;5597;47.588;9.642;2022-09-16T00:05:17;14.90;99.90
11087;DHT22;5597;47.588;9.642;2022-09-16T00:07:44;14.90;99.90
11087;DHT22;5597;47.588;9.642;2022-09-16T00:10:10;14.90;99.90
11087;DHT22;5597;47.588;9.642;2022-09-16T00:12:36;14.90;99.90
11087;DHT22;5597;47.588;9.642;2022-09-16T00:15:02;14.90;99.90
11087;DHT22;5597;47.588;9.642;2022-09-16T00:17:28;14.90;99.90
11087;DHT22;5597;47.588;9.642;2022-09-16T00:19:55;14.80;99.90
11087;DHT22;5597;47.588;9.642;2022-09-16T00:22:20;14.90;99.90
11087;DHT22;5597;47.588;9.642;2022-09-16T00:24:47;14.80;99.90
11087;DHT22;5597;47.588;9.642;2022-09-16T00:27:13;14.80;99.90
11087;DHT22;5597;47.588;9.642;2022-09-16T00:29:39;14.90;99.90
11087;DHT22;5597;47.588;9.642;2022-09-16T00:32:04;14.90;99.90
11087;DHT22;5597;47.588;9.642;2022-09-16T00:34:30;14.90;99.90
11087;DHT22;5597;47.588;9.642;2022-09-16T00:36:55;14.90;99.90
11087;DHT22;5597;47.588;9.642;2022-09-16T00:39:21;14.90;99.90
11087;DHT22;5597;47.588;9.642;2022-09-16T00:41:46;14.90;99.90
11087;DHT22;5597;47.588;9.642;2022-09-16T00:47:19;14.90;99.90
11087;DHT22;5597;47.588;9.642;2022-09-16T00:49:46;14.90;99.90
11087;DHT22;5597;47.588;9.642;2022-09-16T00:52:14;14.90;99.90
11087;DHT22;5597;47.588;9.642;2022-09-16T00:54:41;14.90;99.90
11087;DHT22;5597;47.588;9.642;2022-09-16T00:57:09;15.00;99.90
11087;DHT22;5597;47.588;9.642;2022-09-16T00:59:40;15.00;99.90
11087;DHT22;5597;47.588;9.642;2022-09-16T01:02:10;14.90;99.90
11087;DHT22;5597;47.588;9.642;2022-09-16T01:04:46;14.90;99.90
11087;DHT22;5597;47.588;9.642;2022-09-16T01:07:14;14.90;99.90
11087;DHT22;5597;47.588;9.642;2022-09-16T01:09:39;14.90;99.90
11087;DHT22;5597;47.588;9.642;2022-09-16T01:12:06;14.90;99.90
11087;DHT22;5597;47.588;9.642;2022-09-16T01:14:31;14.90;99.90
11087;DHT22;5597;47.588;9.642;2022-09-16T01:31:19;14.80;99.90
11087;DHT22;5597;47.588;9.642;2022-09-16T01:42:14;14.90;99.90
11087;DHT22;5597;47.588;9.642;2022-09-16T01:44:56;14.90;99.90
11087;DHT22;5597;47.588;9.642;2022-09-16T01:47:58;14.90;99.90
11087;DHT22;5597;47.588;9.642;2022-09-16T01:52:57;14.90;99.90
11087;DHT22;5597;47.588;9.642;2022-09-16T01:55:31;14.90;99.90
11087;DHT22;5597;47.588;9.642;2022-09-16T01:58:10;14.90;99.90
11087;DHT22;5597;47.588;9.642;2022-09-16T02:00:42;14.90;99.90
11087;DHT22;5597;47.588;9.642;2022-09-16T02:03:12;14.90;99.90
11087;DHT22;5597;47.588;9.642;2022-09-16T02:05:57;14.90;99.90
11087;DHT22;5597;47.588;9.642;2022-09-16T02:08:37;14.90;99.90
11087;DHT22;5597;47.588;9.642;2022-09-16T02:11:07;14.90;99.90
11087;DHT22;5597;47.588;9.642;2022-09-16T02:13:40;14.90;99.90
11087;DHT22;5597;47.588;9.642;2022-09-16T02:16:11;14.90;99.90
11087;DHT22;5597;47.588;9.642;2022-09-16T02:18:40;14.90;99.90
11087;DHT22;5597;47.588;9.642;2022-09-16T02:21:10;14.90;99.90
11087;DHT22;5597;47.588;9.642;2022-09-16T02:23:42;15.00;99.90
11087;DHT22;5597;47.588;9.642;2022-09-16T02:26:11;15.00;99.90
11087;DHT22;5597;47.588;9.642;2022-09-16T02:28:41;15.00;99.90
11087;DHT22;5597;47.588;9.642;2022-09-16T02:31:11;15.00;99.90
11087;DHT22;5597;47.588;9.642;2022-09-16T02:34:01;15.00;99.90
11087;DHT22;5597;47.588;9.642;2022-09-16T02:36:29;15.00;99.90
11087;DHT22;5597;47.588;9.642;2022-09-16T02:39:03;15.10;99.90
11087;DHT22;5597;47.588;9.642;2022-09-16T02:41:33;15.00;99.90
11087;DHT22;5597;47.588;9.642;2022-09-16T02:44:00;15.00;99.90
11087;DHT22;5597;47.588;9.642;2022-09-16T02:50:11;15.10;99.90
11087;DHT22;5597;47.588;9.642;2022-09-16T02:53:00;15.10;99.90
11087;DHT22;5597;47.588;9.642;2022-09-16T02:55:50;15.10;99.90
11087;DHT22;5597;47.588;9.642;2022-09-16T02:58:18;15.10;99.90
11087;DHT22;5597;47.588;9.642;2022-09-16T03:00:49;15.10;99.90
11087;DHT22;5597;47.588;9.642;2022-09-16T03:03:16;15.10;99.90
11087;DHT22;5597;47.588;9.642;2022-09-16T03:08:39;15.00;99.90
11087;DHT22;5597;47.588;9.642;2022-09-16T03:11:16;15.00;99.90
11087;DHT22;5597;47.588;9.642;2022-09-16T03:13:52;15.00;99.90
11087;DHT22;5597;47.588;9.642;2022-09-16T03:16:58;14.90;99.90
11087;DHT22;5597;47.588;9.642;2022-09-16T03:19:53;14.90;99.90
11087;DHT22;5597;47.588;9.642;2022-09-16T03:25:17;14.80;99.90
11087;DHT22;5597;47.588;9.642;2022-09-16T03:27:53;14.80;99.90
11087;DHT22;5597;47.588;9.642;2022-09-16T03:30:22;14.80;99.90
11087;DHT22;5597;47.588;9.642;2022-09-16T03:33:04;14.80;99.90
11087;DHT22;5597;47.588;9.642;2022-09-16T03:35:46;14.70;99.90
11087;DHT22;5597;47.588;9.642;2022-09-16T03:38:13;14.70;99.90
11087;DHT22;5597;47.588;9.642;2022-09-16T03:40:41;14.70;99.90
11087;DHT22;5597;47.588;9.642;2022-09-16T03:43:11;14.60;99.90
11087;DHT22;5597;47.588;9.642;2022-09-16T03:45:38;14.60;99.90
11087;DHT22;5597;47.588;9.642;2022-09-16T03:48:05;14.50;99.90
11087;DHT22;5597;47.588;9.642;2022-09-16T03:50:31;14.50;99.90
11087;DHT22;5597;47.588;9.642;2022-09-16T03:52:56;14.50;99.90
11087;DHT22;5597;47.588;9.642;2022-09-16T03:55:22;14.50;99.90
11087;DHT22;5597;47.588;9.642;2022-09-16T03:57:47;14.50;99.90
11087;DHT22;5597;47.588;9.642;2022-09-16T04:00:13;14.50;99.90
11087;DHT22;5597;47.588;9.642;2022-09-16T04:02:40;14.50;99.90
11087;DHT22;5597;47.588;9.642;2022-09-16T04:05:07;14.40;99.90
11087;DHT22;5597;47.588;9.642;2022-09-16T04:07:34;14.50;99.90
11087;DHT22;5597;47.588;9.642;2022-09-16T04:10:00;14.40;99.90
11087;DHT22;5597;47.588;9.642;2022-09-16T04:12:26;14.40;99.90
11087;DHT22;5597;47.588;9.642;2022-09-16T04:14:52;14.40;99.90
11087;DHT22;5597;47.588;9.642;2022-09-16T04:17:17;14.40;99.90
11087;DHT22;5597;47.588;9.642;2022-09-16T04:19:43;14.40;99.90
11087;DHT22;5597;47.588;9.642;2022-09-16T04:22:09;14.40;99.90
11087;DHT22;5597;47.588;9.642;2022-09-16T04:24:34;14.40;99.90
11087;DHT22;5597;47.588;9.642;2022-09-16T04:27:00;14.30;99.90
11087;DHT22;5597;47.588;9.642;2022-09-16T04:29:25;14.30;99.90
11087;DHT22;5597;47.588;9.642;2022-09-16T04:31:52;14.40;99.90
11087;DHT22;5597;47.588;9.642;2022-09-16T04:34:18;14.30;99.90
11087;DHT22;5597;47.588;9.642;2022-09-16T04:36:44;14.30;99.90
11087;DHT22;5597;47.588;9.642;2022-09-16T04:39:10;14.30;99.90
11087;DHT22;5597;47.588;9.642;2022-09-16T04:41:37;14.30;99.90
11087;DHT22;5597;47.588;9.642;2022-09-16T04:44:03;14.30;99.90
11087;DHT22;5597;47.588;9.642;2022-09-16T04:46:29;14.20;99.90
11087;DHT22;5597;47.588;9.642;2022-09-16T04:48:57;14.20;99.90
11087;DHT22;5597;47.588;9.642;2022-09-16T04:51:24;14.20;99.90
11087;DHT22;5597;47.588;9.642;2022-09-16T04:53:53;14.20;99.90
11087;DHT22;5597;47.588;9.642;2022-09-16T04:56:21;14.20;99.90
11087;DHT22;5597;47.588;9.642;2022-09-16T04:58:49;14.10;99.90
11087;DHT22;5597;47.588;9.642;2022-09-16T05:01:21;14.10;99.90
11087;DHT22;5597;47.588;9.642;2022-09-16T05:03:49;14.10;99.90
11087;DHT22;5597;47.588;9.642;2022-09-16T05:06:18;14.10;99.90
11087;DHT22;5597;47.588;9.642;2022-09-16T05:08:45;14.10;99.90
11087;DHT22;5597;47.588;9.642;2022-09-16T05:11:14;14.10;99.90
11087;DHT22;5597;47.588;9.642;2022-09-16T05:13:40;14.10;99.90
11087;DHT22;5597;47.588;9.642;2022-09-16T05:16:08;14.00;99.90
11087;DHT22;5597;47.588;9.642;2022-09-16T05:18:35;14.00;99.90
11087;DHT22;5597;47.588;9.642;2022-09-16T05:21:03;14.00;99.90
11087;DHT22;5597;47.588;9.642;2022-09-16T05:23:29;14.00;99.90
11087;DHT22;5597;47.588;9.642;2022-09-16T05:25:54;14.00;99.90
11087;DHT22;5597;47.588;9.642;2022-09-16T05:28:20;14.00;99.90
11087;DHT22;5597;47.588;9.642;2022-09-16T05:30:46;14.00;99.90
11087;DHT22;5597;47.588;9.642;2022-09-16T05:33:12;14.00;99.90
11087;DHT22;5597;47.588;9.642;2022-09-16T05:35:38;14.00;99.90
11087;DHT22;5597;47.588;9.642;2022-09-16T05:38:03;14.00;99.90
11087;DHT22;5597;47.588;9.642;2022-09-16T05:40:29;14.00;99.90
11087;DHT22;5597;47.588;9.642;2022-09-16T05:42:54;14.00;99.90
11087;DHT22;5597;47.588;9.642;2022-09-16T05:45:20;14.00;99.90
11087;DHT22;5597;47.588;9.642;2022-09-16T05:47:47;14.00;99.90
11087;DHT22;5597;47.588;9.642;2022-09-16T05:50:13;14.00;99.90
11087;DHT22;5597;47.588;9.642;2022-09-16T05:52:39;14.00;99.90
11087;DHT22;5597;47.588;9.642;2022-09-16T05:55:04;14.00;99.90
11087;DHT22;5597;47.588;9.642;2022-09-16T05:57:30;14.10;99.90
11087;DHT22;5597;47.588;9.642;2022-09-16T05:59:55;14.10;99.90
11087;DHT22;5597;47.588;9.642;2022-09-16T06:02:21;14.10;99.90
11087;DHT22;5597;47.588;9.642;2022-09-16T06:04:47;14.10;99.90
11087;DHT22;5597;47.588;9.642;2022-09-16T06:07:12;14.10;99.90
11087;DHT22;5597;47.588;9.642;2022-09-16T06:09:38;14.10;99.90
11087;DHT22;5597;47.588;9.642;2022-09-16T06:12:03;14.10;99.90
11087;DHT22;5597;47.588;9.642;2022-09-16T06:14:29;14.10;99.90
11087;DHT22;5597;47.588;9.642;2022-09-16T06:16:55;14.10;99.90
11087;DHT22;5597;47.588;9.642;2022-09-16T06:19:21;14.10;99.90
11087;DHT22;5597;47.588;9.642;2022-09-16T06:21:47;14.30;99.90
11087;DHT22;5597;47.588;9.642;2022-09-16T06:24:14;14.50;99.90
11087;DHT22;5597;47.588;9.642;2022-09-16T06:26:42;14.70;99.90
11087;DHT22;5597;47.588;9.642;2022-09-16T06:29:08;14.80;99.90
11087;DHT22;5597;47.588;9.642;2022-09-16T06:31:35;15.00;99.90
11087;DHT22;5597;47.588;9.642;2022-09-16T06:34:02;15.10;99.90
11087;DHT22;5597;47.588;9.642;2022-09-16T06:36:30;15.20;99.90
11087;DHT22;5597;47.588;9.642;2022-09-16T06:38:56;15.20;99.90
11087;DHT22;5597;47.588;9.642;2022-09-16T06:41:22;15.30;99.90
11087;DHT22;5597;47.588;9.642;2022-09-16T06:43:49;15.40;99.90
11087;DHT22;5597;47.588;9.642;2022-09-16T06:46:22;15.40;99.90
11087;DHT22;5597;47.588;9.642;2022-09-16T06:48:50;15.40;99.90
11087;DHT22;5597;47.588;9.642;2022-09-16T06:51:18;15.50;99.90
11087;DHT22;5597;47.588;9.642;2022-09-16T06:53:44;15.50;99.90
11087;DHT22;5597;47.588;9.642;2022-09-16T06:56:12;15.60;99.90
11087;DHT22;5597;47.588;9.642;2022-09-16T06:58:40;15.80;99.90
11087;DHT22;5597;47.588;9.642;2022-09-16T07:01:08;15.90;99.90
11087;DHT22;5597;47.588;9.642;2022-09-16T07:03:40;16.10;99.90
11087;DHT22;5597;47.588;9.642;2022-09-16T07:06:06;16.30;99.90
11087;DHT22;5597;47.588;9.642;2022-09-16T07:08:34;16.50;99.90
11087;DHT22;5597;47.588;9.642;2022-09-16T07:11:04;16.60;99.90
11087;DHT22;5597;47.588;9.642;2022-09-16T07:13:31;16.70;99.90
11087;DHT22;5597;47.588;9.642;2022-09-16T07:16:05;16.90;99.90
11087;DHT22;5597;47.588;9.642;2022-09-16T07:18:31;17.00;99.90
11087;DHT22;5597;47.588;9.642;2022-09-16T07:21:10;17.20;99.90
11087;DHT22;5597;47.588;9.642;2022-09-16T07:23:37;17.30;99.90
11087;DHT22;5597;47.588;9.642;2022-09-16T07:26:24;17.40;99.90
11087;DHT22;5597;47.588;9.642;2022-09-16T07:28:51;17.40;99.90
11087;DHT22;5597;47.588;9.642;2022-09-16T07:31:20;17.30;99.90
11087;DHT22;5597;47.588;9.642;2022-09-16T07:33:47;17.30;99.90
11087;DHT22;5597;47.588;9.642;2022-09-16T07:36:15;17.20;99.90
11087;DHT22;5597;47.588;9.642;2022-09-16T07:38:42;17.20;99.90
11087;DHT22;5597;47.588;9.642;2022-09-16T07:41:22;17.20;99.90
11087;DHT22;5597;47.588;9.642;2022-09-16T07:43:49;17.20;99.90
11087;DHT22;5597;47.588;9.642;2022-09-16T07:46:16;17.10;99.90
11087;DHT22;5597;47.588;9.642;2022-09-16T07:48:43;17.10;99.90
11087;DHT22;5597;47.588;9.642;2022-09-16T07:51:14;17.00;99.90
11087;DHT22;5597;47.588;9.642;2022-09-16T07:53:40;16.90;99.90
11087;DHT22;5597;47.588;9.642;2022-09-16T07:56:15;16.90;99.90
11087;DHT22;5597;47.588;9.642;2022-09-16T07:58:42;16.80;99.90
11087;DHT22;5597;47.588;9.642;2022-09-16T08:01:08;16.80;99.90
11087;DHT22;5597;47.588;9.642;2022-09-16T08:03:35;16.70;99.90
11087;DHT22;5597;47.588;9.642;2022-09-16T08:06:03;16.60;99.90
11087;DHT22;5597;47.588;9.642;2022-09-16T08:08:30;16.60;99.90
11087;DHT22;5597;47.588;9.642;2022-09-16T08:10:56;16.70;99.90
11087;DHT22;5597;47.588;9.642;2022-09-16T08:13:23;16.80;99.90
11087;DHT22;5597;47.588;9.642;2022-09-16T08:15:49;17.00;99.90
11087;DHT22;5597;47.588;9.642;2022-09-16T08:18:14;17.10;99.90
11087;DHT22;5597;47.588;9.642;2022-09-16T08:20:40;17.20;99.90
11087;DHT22;5597;47.588;9.642;2022-09-16T08:23:06;17.30;99.90
11087;DHT22;5597;47.588;9.642;2022-09-16T08:25:31;17.40;99.90
11087;DHT22;5597;47.588;9.642;2022-09-16T08:27:57;17.40;99.90
11087;DHT22;5597;47.588;9.642;2022-09-16T08:30:23;17.50;99.90
11087;DHT22;5597;47.588;9.642;2022-09-16T08:32:58;17.50;99.90
11087;DHT22;5597;47.588;9.642;2022-09-16T08:35:24;17.50;99.90
11087;DHT22;5597;47.588;9.642;2022-09-16T08:37:51;17.50;99.90
11087;DHT22;5597;47.588;9.642;2022-09-16T08:40:21;17.60;99.90
11087;DHT22;5597;47.588;9.642;2022-09-16T08:45:20;17.60;99.90
11087;DHT22;5597;47.588;9.642;2022-09-16T08:51:05;17.60;99.90
11087;DHT22;5597;47.588;9.642;2022-09-16T08:53:53;17.60;99.90
11087;DHT22;5597;47.588;9.642;2022-09-16T08:56:22;17.50;99.90
11087;DHT22;5597;47.588;9.642;2022-09-16T08:58:56;17.50;99.90
11087;DHT22;5597;47.588;9.642;2022-09-16T09:01:41;17.60;99.90
11087;DHT22;5597;47.588;9.642;2022-09-16T09:04:09;17.60;99.90
11087;DHT22;5597;47.588;9.642;2022-09-16T09:07:05;17.70;99.90
11087;DHT22;5597;47.588;9.642;2022-09-16T09:12:39;17.70;99.90
11087;DHT22;5597;47.588;9.642;2022-09-16T09:15:19;17.70;99.90
11087;DHT22;5597;47.588;9.642;2022-09-16T09:21:24;17.70;99.90
11087;DHT22;5597;47.588;9.642;2022-09-16T09:23:58;17.80;99.90
11087;DHT22;5597;47.588;9.642;2022-09-16T09:40:03;18.60;99.90
11087;DHT22;5597;47.588;9.642;2022-09-16T09:45:15;18.70;99.90
11087;DHT22;5597;47.588;9.642;2022-09-16T09:48:01;18.80;99.90
11087;DHT22;5597;47.588;9.642;2022-09-16T09:50:39;18.80;99.90
11087;DHT22;5597;47.588;9.642;2022-09-16T09:53:19;18.90;99.90
11087;DHT22;5597;47.588;9.642;2022-09-16T09:55:51;18.80;99.90
11087;DHT22;5597;47.588;9.642;2022-09-16T10:01:26;18.90;99.90
11087;DHT22;5597;47.588;9.642;2022-09-16T10:03:52;19.00;99.90
11087;DHT22;5597;47.588;9.642;2022-09-16T10:06:33;19.10;99.90
11087;DHT22;5597;47.588;9.642;2022-09-16T10:09:00;19.10;99.90
11087;DHT22;5597;47.588;9.642;2022-09-16T10:11:28;19.20;99.90
11087;DHT22;5597;47.588;9.642;2022-09-16T10:13:57;19.20;99.90
11087;DHT22;5597;47.588;9.642;2022-09-16T10:16:37;19.20;99.90
11087;DHT22;5597;47.588;9.642;2022-09-16T10:19:03;19.20;99.90
11087;DHT22;5597;47.588;9.642;2022-09-16T10:21:50;19.40;99.90
11087;DHT22;5597;47.588;9.642;2022-09-16T10:24:33;19.70;99.90
11087;DHT22;5597;47.588;9.642;2022-09-16T10:27:00;20.20;99.90
11087;DHT22;5597;47.588;9.642;2022-09-16T10:29:27;20.60;99.90
11087;DHT22;5597;47.588;9.642;2022-09-16T10:31:53;20.90;99.90
11087;DHT22;5597;47.588;9.642;2022-09-16T10:34:31;21.00;99.90
11087;DHT22;5597;47.588;9.642;2022-09-16T10:37:04;21.20;99.90
11087;DHT22;5597;47.588;9.642;2022-09-16T10:39:48;21.20;99.90
11087;DHT22;5597;47.588;9.642;2022-09-16T10:42:25;21.20;99.90
11087;DHT22;5597;47.588;9.642;2022-09-16T10:45:07;21.30;99.90
11087;DHT22;5597;47.588;9.642;2022-09-16T10:47:38;21.30;99.90
11087;DHT22;5597;47.588;9.642;2022-09-16T10:50:04;21.20;99.90
11087;DHT22;5597;47.588;9.642;2022-09-16T10:52:41;21.10;99.90
11087;DHT22;5597;47.588;9.642;2022-09-16T10:55:26;21.00;99.90
11087;DHT22;5597;47.588;9.642;2022-09-16T10:57:53;20.80;99.90
11087;DHT22;5597;47.588;9.642;2022-09-16T11:00:45;20.60;99.90
11087;DHT22;5597;47.588;9.642;2022-09-16T11:30:02;17.80;99.90
11087;DHT22;5597;47.588;9.642;2022-09-16T11:40:57;17.50;99.90
11087;DHT22;5597;47.588;9.642;2022-09-16T11:43:59;17.50;99.90
11087;DHT22;5597;47.588;9.642;2022-09-16T11:46:38;17.50;99.90
11087;DHT22;5597;47.588;9.642;2022-09-16T11:49:16;17.40;99.90
11087;DHT22;5597;47.588;9.642;2022-09-16T11:51:52;17.40;99.90
11087;DHT22;5597;47.588;9.642;2022-09-16T11:57:18;16.90;99.90
11087;DHT22;5597;47.588;9.642;2022-09-16T11:59:52;16.70;99.90
11087;DHT22;5597;47.588;9.642;2022-09-16T12:02:39;16.60;99.90
11087;DHT22;5597;47.588;9.642;2022-09-16T12:08:06;16.30;99.90
11087;DHT22;5597;47.588;9.642;2022-09-16T12:10:56;16.20;99.90
11087;DHT22;5597;47.588;9.642;2022-09-16T12:13:35;16.10;99.90
11087;DHT22;5597;47.588;9.642;2022-09-16T12:16:06;16.00;99.90
11087;DHT22;5597;47.588;9.642;2022-09-16T12:18:52;16.00;99.90
11087;DHT22;5597;47.588;9.642;2022-09-16T12:21:33;15.90;99.90
11087;DHT22;5597;47.588;9.642;2022-09-16T12:27:00;15.70;99.90
11087;DHT22;5597;47.588;9.642;2022-09-16T12:29:37;15.60;99.90
11087;DHT22;5597;47.588;9.642;2022-09-16T12:32:08;15.50;99.90
11087;DHT22;5597;47.588;9.642;2022-09-16T12:34:37;15.40;99.90
11087;DHT22;5597;47.588;9.642;2022-09-16T12:37:47;15.30;99.90
11087;DHT22;5597;47.588;9.642;2022-09-16T12:39:52;15.10;99.90
11087;DHT22;5597;47.588;9.642;2022-09-16T12:42:49;14.90;99.90
11087;DHT22;5597;47.588;9.642;2022-09-16T12:46:02;14.80;99.90
11087;DHT22;5597;47.588;9.642;2022-09-16T13:02:37;14.10;99.90
11087;DHT22;5597;47.588;9.642;2022-09-16T13:05:32;14.10;99.90
11087;DHT22;5597;47.588;9.642;2022-09-16T13:08:23;14.00;99.90
11087;DHT22;5597;47.588;9.642;2022-09-16T13:11:04;14.00;99.90
11087;DHT22;5597;47.588;9.642;2022-09-16T13:13:40;13.90;99.90
11087;DHT22;5597;47.588;9.642;2022-09-16T13:16:08;13.90;99.90
11087;DHT22;5597;47.588;9.642;2022-09-16T13:18:41;13.80;99.90
11087;DHT22;5597;47.588;9.642;2022-09-16T13:21:23;13.70;99.90
11087;DHT22;5597;47.588;9.642;2022-09-16T13:24:03;13.70;99.90
11087;DHT22;5597;47.588;9.642;2022-09-16T13:26:41;13.60;99.90
11087;DHT22;5597;47.588;9.642;2022-09-16T13:29:39;13.60;99.90
11087;DHT22;5597;47.588;9.642;2022-09-16T13:37:50;13.60;99.90
11087;DHT22;5597;47.588;9.642;2022-09-16T13:40:22;13.60;99.90
11087;DHT22;5597;47.588;9.642;2022-09-16T13:42:49;13.60;99.90
11087;DHT22;5597;47.588;9.642;2022-09-16T13:45:42;13.60;99.90
11087;DHT22;5597;47.588;9.642;2022-09-16T13:48:15;13.60;99.90
11087;DHT22;5597;47.588;9.642;2022-09-16T13:50:54;13.60;99.90
11087;DHT22;5597;47.588;9.642;2022-09-16T13:53:32;13.60;99.90
11087;DHT22;5597;47.588;9.642;2022-09-16T14:10:10;13.80;99.90
11087;DHT22;5597;47.588;9.642;2022-09-16T14:12:42;13.80;99.90
11087;DHT22;5597;47.588;9.642;2022-09-16T14:15:10;13.80;99.90
11087;DHT22;5597;47.588;9.642;2022-09-16T14:17:43;13.80;99.90
11087;DHT22;5597;47.588;9.642;2022-09-16T14:20:15;13.80;99.90
11087;DHT22;5597;47.588;9.642;2022-09-16T14:22:42;13.80;99.90
11087;DHT22;5597;47.588;9.642;2022-09-16T14:25:34;13.80;99.90
11087;DHT22;5597;47.588;9.642;2022-09-16T14:30:52;13.90;99.90
11087;DHT22;5597;47.588;9.642;2022-09-16T14:33:23;13.90;99.90
11087;DHT22;5597;47.588;9.642;2022-09-16T14:35:49;14.00;99.90
11087;DHT22;5597;47.588;9.642;2022-09-16T14:38:18;14.10;99.90
11087;DHT22;5597;47.588;9.642;2022-09-16T14:40:44;14.20;99.90
11087;DHT22;5597;47.588;9.642;2022-09-16T14:43:18;14.20;99.90
11087;DHT22;5597;47.588;9.642;2022-09-16T14:45:51;14.20;99.90
11087;DHT22;5597;47.588;9.642;2022-09-16T14:48:18;14.20;99.90
11087;DHT22;5597;47.588;9.642;2022-09-16T14:50:46;14.10;99.90
11087;DHT22;5597;47.588;9.642;2022-09-16T14:53:33;14.10;99.90
11087;DHT22;5597;47.588;9.642;2022-09-16T14:56:02;14.10;99.90
11087;DHT22;5597;47.588;9.642;2022-09-16T14:58:30;14.10;99.90
11087;DHT22;5597;47.588;9.642;2022-09-16T15:01:16;14.10;99.90
11087;DHT22;5597;47.588;9.642;2022-09-16T15:03:53;14.00;99.90
11087;DHT22;5597;47.588;9.642;2022-09-16T15:06:22;14.00;99.90
11087;DHT22;5597;47.588;9.642;2022-09-16T15:08:54;14.00;99.90
11087;DHT22;5597;47.588;9.642;2022-09-16T15:11:27;14.00;99.90
11087;DHT22;5597;47.588;9.642;2022-09-16T15:13:54;14.00;99.90
11087;DHT22;5597;47.588;9.642;2022-09-16T15:16:21;14.00;99.90
11087;DHT22;5597;47.588;9.642;2022-09-16T15:19:03;14.00;99.90
11087;DHT22;5597;47.588;9.642;2022-09-16T15:21:32;14.00;99.90
11087;DHT22;5597;47.588;9.642;2022-09-16T15:24:00;14.10;99.90
11087;DHT22;5597;47.588;9.642;2022-09-16T15:26:45;14.10;99.90
11087;DHT22;5597;47.588;9.642;2022-09-16T15:31:43;14.10;99.90
11087;DHT22;5597;47.588;9.642;2022-09-16T15:36:54;14.20;99.90
11087;DHT22;5597;47.588;9.642;2022-09-16T15:41:47;14.20;99.90
11087;DHT22;5597;47.588;9.642;2022-09-16T15:44:17;14.20;99.90
11087;DHT22;5597;47.588;9.642;2022-09-16T15:46:45;14.20;99.90
11087;DHT22;5597;47.588;9.642;2022-09-16T15:49:11;14.20;99.90
11087;DHT22;5597;47.588;9.642;2022-09-16T15:51:45;14.20;99.90
11087;DHT22;5597;47.588;9.642;2022-09-16T15:54:20;14.20;99.90
11087;DHT22;5597;47.588;9.642;2022-09-16T15:59:27;14.10;99.90
11087;DHT22;5597;47.588;9.642;2022-09-16T16:01:55;14.10;99.90
11087;DHT22;5597;47.588;9.642;2022-09-16T16:04:29;14.10;99.90
11087;DHT22;5597;47.588;9.642;2022-09-16T16:07:02;14.10;99.90
11087;DHT22;5597;47.588;9.642;2022-09-16T16:09:29;14.10;99.90
11087;DHT22;5597;47.588;9.642;2022-09-16T16:11:58;14.10;99.90
11087;DHT22;5597;47.588;9.642;2022-09-16T16:14:26;14.10;99.90
11087;DHT22;5597;47.588;9.642;2022-09-16T16:17:00;14.10;99.90
11087;DHT22;5597;47.588;9.642;2022-09-16T16:19:26;14.00;99.90
11087;DHT22;5597;47.588;9.642;2022-09-16T16:21:53;14.10;99.90
11087;DHT22;5597;47.588;9.642;2022-09-16T16:24:19;14.00;99.90
11087;DHT22;5597;47.588;9.642;2022-09-16T16:26:44;14.00;99.90
11087;DHT22;5597;47.588;9.642;2022-09-16T16:29:10;13.90;99.90
11087;DHT22;5597;47.588;9.642;2022-09-16T16:31:35;13.90;99.90
11087;DHT22;5597;47.588;9.642;2022-09-16T16:34:02;13.90;99.90
11087;DHT22;5597;47.588;9.642;2022-09-16T16:36:28;13.90;99.90
11087;DHT22;5597;47.588;9.642;2022-09-16T16:38:53;13.90;99.90
11087;DHT22;5597;47.588;9.642;2022-09-16T16:41:20;13.90;99.90
11087;DHT22;5597;47.588;9.642;2022-09-16T16:43:45;13.90;99.90
11087;DHT22;5597;47.588;9.642;2022-09-16T16:46:11;13.80;99.90
11087;DHT22;5597;47.588;9.642;2022-09-16T16:48:37;13.80;99.90
11087;DHT22;5597;47.588;9.642;2022-09-16T16:51:06;13.80;99.90
11087;DHT22;5597;47.588;9.642;2022-09-16T16:53:35;13.70;99.90
11087;DHT22;5597;47.588;9.642;2022-09-16T16:56:05;13.70;99.90
11087;DHT22;5597;47.588;9.642;2022-09-16T16:58:32;13.60;99.90
11087;DHT22;5597;47.588;9.642;2022-09-16T17:03:37;13.40;99.90
11087;DHT22;5597;47.588;9.642;2022-09-16T17:06:03;13.40;99.90
11087;DHT22;5597;47.588;9.642;2022-09-16T17:08:29;13.40;99.90
11087;DHT22;5597;47.588;9.642;2022-09-16T17:13:35;13.40;99.90
11087;DHT22;5597;47.588;9.642;2022-09-16T17:16:02;13.40;99.90
11087;DHT22;5597;47.588;9.642;2022-09-16T17:18:27;13.40;99.90
11087;DHT22;5597;47.588;9.642;2022-09-16T17:20:53;13.40;99.90
11087;DHT22;5597;47.588;9.642;2022-09-16T17:23:24;13.50;99.90
11087;DHT22;5597;47.588;9.642;2022-09-16T17:25:50;13.50;99.90
11087;DHT22;5597;47.588;9.642;2022-09-16T17:28:16;13.50;99.90
11087;DHT22;5597;47.588;9.642;2022-09-16T17:30:43;13.50;99.90
11087;DHT22;5597;47.588;9.642;2022-09-16T17:33:08;13.40;99.90
11087;DHT22;5597;47.588;9.642;2022-09-16T17:35:34;13.40;99.90
11087;DHT22;5597;47.588;9.642;2022-09-16T17:38:00;13.40;99.90
11087;DHT22;5597;47.588;9.642;2022-09-16T17:40:26;13.40;99.90
11087;DHT22;5597;47.588;9.642;2022-09-16T17:42:51;13.40;99.90
11087;DHT22;5597;47.588;9.642;2022-09-16T17:45:17;13.40;99.90
11087;DHT22;5597;47.588;9.642;2022-09-16T17:47:43;13.40;99.90
11087;DHT22;5597;47.588;9.642;2022-09-16T17:50:08;13.40;99.90
11087;DHT22;5597;47.588;9.642;2022-09-16T17:52:34;13.40;99.90
11087;DHT22;5597;47.588;9.642;2022-09-16T17:54:59;13.40;99.90
11087;DHT22;5597;47.588;9.642;2022-09-16T17:57:25;13.40;99.90
11087;DHT22;5597;47.588;9.642;2022-09-16T17:59:51;13.40;99.90
11087;DHT22;5597;47.588;9.642;2022-09-16T18:02:17;13.40;99.90
11087;DHT22;5597;47.588;9.642;2022-09-16T18:04:43;13.30;99.90
11087;DHT22;5597;47.588;9.642;2022-09-16T18:07:08;13.20;99.90
11087;DHT22;5597;47.588;9.642;2022-09-16T18:09:35;13.10;99.90
11087;DHT22;5597;47.588;9.642;2022-09-16T18:12:00;13.10;99.90
11087;DHT22;5597;47.588;9.642;2022-09-16T18:14:26;13.10;99.90
11087;DHT22;5597;47.588;9.642;2022-09-16T18:16:51;13.10;99.90
11087;DHT22;5597;47.588;9.642;2022-09-16T18:19:17;13.10;99.90
11087;DHT22;5597;47.588;9.642;2022-09-16T18:21:43;13.10;99.90
11087;DHT22;5597;47.588;9.642;2022-09-16T18:24:11;13.00;99.90
11087;DHT22;5597;47.588;9.642;2022-09-16T18:26:38;13.10;99.90
11087;DHT22;5597;47.588;9.642;2022-09-16T18:29:05;13.00;99.90
11087;DHT22;5597;47.588;9.642;2022-09-16T18:31:31;13.00;99.90
11087;DHT22;5597;47.588;9.642;2022-09-16T18:33:57;12.90;99.90
11087;DHT22;5597;47.588;9.642;2022-09-16T18:36:24;13.00;99.90
11087;DHT22;5597;47.588;9.642;2022-09-16T18:38:51;13.00;99.90
11087;DHT22;5597;47.588;9.642;2022-09-16T18:41:23;13.00;99.90
11087;DHT22;5597;47.588;9.642;2022-09-16T18:43:57;13.00;99.90
11087;DHT22;5597;47.588;9.642;2022-09-16T18:46:25;12.90;99.90
11087;DHT22;5597;47.588;9.642;2022-09-16T18:48:51;12.90;99.90
11087;DHT22;5597;47.588;9.642;2022-09-16T18:53:57;12.90;99.90